Time;durP1;ratioP1;P1;durP2;ratioP2;P2;SDS_P1;SDS_P2;PMS_P1;PMS_P2;Temp;Humidity;BMP_temperature;BMP_pressure;BME280_temperature;BME280_humidity;BME280_pressure;Samples;Min_cycle;Max_cycle;Signal;HPM_P1;HPM_P2
2022/01/08 00:02:20;;;;;;;0.65;0.65;;;;;;;;;;4990483;28;20404;-73
2022/01/08 00:04:46;;;;;;;0.88;0.85;;;;;;;;;;4991960;28;20626;-74
2022/01/08 00:07:12;;;;;;;0.22;0.22;;;;;;;;;;4986290;28;20026;-73
2022/01/08 00:09:38;;;;;;;1.00;0.47;;;;;;;;;;4997076;28;20038;-73
2022/01/08 00:12:04;;;;;;;0.30;0.30;;;;;;;;;;4987357;28;20033;-72
2022/01/08 00:14:30;;;;;;;0.10;0.10;;;;;;;;;;4967147;28;20456;-72
2022/01/08 00:16:58;;;;;;;0.10;0.10;;;;;;;;;;4991711;28;20030;-72
2022/01/08 00:19:24;;;;;;;0.98;0.50;;;;;;;;;;4988293;28;20476;-71
2022/01/08 00:21:50;;;;;;;0.20;0.20;;;;;;;;;;4987303;28;20030;-72
2022/01/08 00:24:15;;;;;;;0.60;0.60;;;;;;;;;;4988697;28;20110;-72
2022/01/08 00:26:41;;;;;;;0.52;0.52;;;;;;;;;;4985019;28;20046;-72
2022/01/08 00:29:07;;;;;;;0.65;0.65;;;;;;;;;;4993736;28;20394;-72
2022/01/08 00:31:33;;;;;;;0.28;0.28;;;;;;;;;;4987261;28;20026;-72
2022/01/08 00:33:59;;;;;;;0.10;0.10;;;;;;;;;;4996665;28;20030;-72
2022/01/08 00:36:25;;;;;;;0.47;0.47;;;;;;;;;;4992434;28;20508;-72
2022/01/08 00:38:51;;;;;;;0.93;0.90;;;;;;;;;;4997291;28;20022;-71
2022/01/08 00:41:17;;;;;;;0.82;0.80;;;;;;;;;;4985026;28;20034;-71
2022/01/08 00:43:43;;;;;;;0.40;0.40;;;;;;;;;;4987398;28;20385;-71
2022/01/08 00:46:09;;;;;;;0.10;0.10;;;;;;;;;;4999041;28;20057;-72
2022/01/08 00:48:35;;;;;;;0.55;0.35;;;;;;;;;;4991384;28;20388;-71
2022/01/08 00:51:01;;;;;;;0.10;0.10;;;;;;;;;;4991200;28;20048;-71
2022/01/08 00:53:27;;;;;;;0.63;0.63;;;;;;;;;;4997573;28;20036;-71
2022/01/08 00:55:52;;;;;;;0.20;0.20;;;;;;;;;;4986455;28;20033;-71
2022/01/08 00:58:19;;;;;;;0.05;0.05;;;;;;;;;;4993808;28;20022;-71
2022/01/08 01:00:44;;;;;;;0.35;0.35;;;;;;;;;;4983424;28;20030;-71
2022/01/08 01:03:10;;;;;;;1.35;0.88;;;;;;;;;;4987461;28;20029;-71
2022/01/08 01:05:36;;;;;;;0.57;0.57;;;;;;;;;;5001734;28;20485;-71
2022/01/08 01:08:02;;;;;;;0.40;0.40;;;;;;;;;;4994566;28;20057;-72
2022/01/08 01:10:28;;;;;;;0.10;0.10;;;;;;;;;;4991533;28;20044;-71
2022/01/08 01:12:54;;;;;;;1.52;1.13;;;;;;;;;;4994293;28;20517;-71
2022/01/08 01:15:20;;;;;;;0.32;0.32;;;;;;;;;;4989869;28;20547;-71
2022/01/08 01:17:47;;;;;;;1.70;1.60;;;;;;;;;;4986742;28;20034;-71
2022/01/08 01:20:15;;;;;;;0.30;0.30;;;;;;;;;;4990875;28;20125;-71
2022/01/08 01:25:14;;;;;;;0.45;0.32;;;;;;;;;;4984708;28;20034;-71
2022/01/08 01:27:57;;;;;;;0.13;0.13;;;;;;;;;;4990811;28;20037;-71
2022/01/08 01:41:48;;;;;;;0.32;0.28;;;;;;;;;;4992114;28;20097;-71
2022/01/08 01:47:03;;;;;;;0.10;0.10;;;;;;;;;;4980983;28;20054;-72
2022/01/08 01:49:34;;;;;;;0.30;0.30;;;;;;;;;;4983808;28;20030;-71
2022/01/08 01:52:00;;;;;;;0.38;0.38;;;;;;;;;;4989548;28;20105;-71
2022/01/08 01:54:27;;;;;;;0.25;0.25;;;;;;;;;;4963855;28;20030;-71
2022/01/08 01:56:53;;;;;;;1.58;0.63;;;;;;;;;;4991284;28;20503;-71
2022/01/08 01:59:19;;;;;;;0.43;0.43;;;;;;;;;;4993470;28;20121;-71
2022/01/08 02:01:45;;;;;;;0.10;0.10;;;;;;;;;;4989500;28;20507;-71
2022/01/08 02:04:11;;;;;;;2.38;0.55;;;;;;;;;;4987581;28;20034;-71
2022/01/08 02:06:37;;;;;;;0.60;0.60;;;;;;;;;;4985476;28;20039;-71
2022/01/08 02:09:03;;;;;;;1.15;0.60;;;;;;;;;;4991319;28;20026;-71
2022/01/08 02:11:29;;;;;;;0.15;0.15;;;;;;;;;;4990395;28;20041;-71
2022/01/08 02:14:02;;;;;;;0.40;0.38;;;;;;;;;;4992976;28;20029;-71
2022/01/08 02:16:28;;;;;;;0.32;0.32;;;;;;;;;;4981473;28;20045;-71
2022/01/08 02:18:54;;;;;;;0.30;0.30;;;;;;;;;;4986723;28;20022;-71
2022/01/08 02:21:20;;;;;;;0.50;0.50;;;;;;;;;;4996137;28;20036;-71
2022/01/08 02:23:48;;;;;;;0.25;0.25;;;;;;;;;;4997059;28;20037;-71
2022/01/08 02:26:14;;;;;;;0.52;0.52;;;;;;;;;;4987032;28;20019;-70
2022/01/08 02:28:40;;;;;;;1.50;1.40;;;;;;;;;;4985156;28;20112;-71
2022/01/08 02:31:06;;;;;;;1.17;1.15;;;;;;;;;;4992087;28;20037;-71
2022/01/08 02:33:32;;;;;;;0.68;0.68;;;;;;;;;;4986472;28;20027;-71
2022/01/08 02:35:58;;;;;;;0.28;0.28;;;;;;;;;;4984350;28;20089;-71
2022/01/08 02:38:25;;;;;;;1.50;0.60;;;;;;;;;;4981815;28;20038;-72
2022/01/08 02:40:56;;;;;;;0.82;0.80;;;;;;;;;;4983724;28;20022;-71
2022/01/08 02:43:23;;;;;;;0.17;0.17;;;;;;;;;;4984950;28;20083;-71
2022/01/08 02:45:49;;;;;;;0.52;0.52;;;;;;;;;;4988455;28;20861;-71
2022/01/08 02:48:15;;;;;;;0.20;0.20;;;;;;;;;;4991199;28;20084;-70
2022/01/08 02:50:43;;;;;;;0.30;0.30;;;;;;;;;;4986482;28;20477;-71
2022/01/08 02:53:09;;;;;;;0.30;0.30;;;;;;;;;;4997774;28;20505;-71
2022/01/08 02:55:36;;;;;;;0.63;0.63;;;;;;;;;;4978798;28;20055;-71
2022/01/08 02:58:02;;;;;;;1.35;0.50;;;;;;;;;;4984346;28;20035;-72
2022/01/08 03:00:29;;;;;;;0.38;0.38;;;;;;;;;;4984686;28;20380;-71
2022/01/08 03:02:55;;;;;;;0.50;0.50;;;;;;;;;;4984812;28;20117;-71
2022/01/08 03:05:21;;;;;;;1.85;1.60;;;;;;;;;;4989920;28;20018;-71
2022/01/08 03:07:47;;;;;;;0.75;0.75;;;;;;;;;;4987834;28;20866;-71
2022/01/08 03:10:15;;;;;;;0.17;0.17;;;;;;;;;;4984272;28;20412;-72
2022/01/08 03:12:41;;;;;;;0.25;0.25;;;;;;;;;;4991527;28;20451;-71
2022/01/08 03:15:11;;;;;;;0.10;0.10;;;;;;;;;;4986045;28;20030;-71
2022/01/08 03:17:37;;;;;;;0.40;0.40;;;;;;;;;;4993242;28;20030;-71
2022/01/08 03:20:06;;;;;;;0.10;0.10;;;;;;;;;;4981374;28;20512;-71
2022/01/08 03:22:33;;;;;;;0.38;0.38;;;;;;;;;;4981396;28;20018;-71
2022/01/08 03:24:59;;;;;;;0.80;0.80;;;;;;;;;;4991468;28;20428;-71
2022/01/08 03:27:25;;;;;;;5.93;0.85;;;;;;;;;;4992133;28;20038;-71
2022/01/08 03:29:51;;;;;;;0.03;0.03;;;;;;;;;;4984640;28;20060;-71
2022/01/08 03:32:17;;;;;;;0.22;0.22;;;;;;;;;;4994328;28;20035;-71
2022/01/08 03:34:43;;;;;;;0.70;0.45;;;;;;;;;;4987008;28;20518;-70
2022/01/08 03:37:09;;;;;;;0.30;0.30;;;;;;;;;;4991862;28;20512;-71
2022/01/08 03:39:35;;;;;;;0.25;0.25;;;;;;;;;;4988406;28;20030;-71
2022/01/08 03:42:01;;;;;;;0.43;0.43;;;;;;;;;;4995278;28;20031;-71
2022/01/08 03:44:27;;;;;;;0.38;0.38;;;;;;;;;;4991331;28;20030;-71
2022/01/08 03:46:55;;;;;;;0.10;0.10;;;;;;;;;;4989771;28;20560;-71
2022/01/08 03:49:25;;;;;;;0.10;0.10;;;;;;;;;;5004163;28;20121;-72
2022/01/08 03:51:51;;;;;;;1.20;0.90;;;;;;;;;;4997545;28;20112;-70
2022/01/08 03:54:18;;;;;;;0.35;0.35;;;;;;;;;;4992554;28;20570;-70
2022/01/08 03:56:44;;;;;;;1.45;0.52;;;;;;;;;;4998439;28;20480;-71
2022/01/08 03:59:10;;;;;;;0.10;0.10;;;;;;;;;;4992815;28;20432;-71
2022/01/08 04:01:36;;;;;;;0.30;0.30;;;;;;;;;;4991774;28;20054;-71
2022/01/08 04:04:02;;;;;;;2.58;0.95;;;;;;;;;;4985504;28;20513;-71
2022/01/08 04:06:27;;;;;;;0.32;0.32;;;;;;;;;;4993910;28;20021;-71
2022/01/08 04:08:57;;;;;;;5.05;0.68;;;;;;;;;;4991297;28;20535;-71
2022/01/08 04:11:24;;;;;;;4.28;0.95;;;;;;;;;;4999526;28;20048;-71
2022/01/08 04:13:50;;;;;;;0.00;0.00;;;;;;;;;;4988545;28;20026;-71
2022/01/08 04:16:20;;;;;;;1.00;0.90;;;;;;;;;;4993358;28;20034;-71
2022/01/08 04:18:46;;;;;;;0.13;0.13;;;;;;;;;;4983949;28;20536;-71
2022/01/08 04:23:58;;;;;;;0.20;0.20;;;;;;;;;;4991878;28;20048;-71
2022/01/08 04:26:25;;;;;;;0.52;0.52;;;;;;;;;;4985051;28;20425;-71
2022/01/08 04:28:52;;;;;;;0.20;0.20;;;;;;;;;;4987510;28;20037;-71
2022/01/08 04:31:18;;;;;;;0.25;0.25;;;;;;;;;;4998063;28;20088;-71
2022/01/08 04:33:44;;;;;;;0.70;0.70;;;;;;;;;;4990230;28;20034;-71
2022/01/08 04:36:10;;;;;;;0.10;0.10;;;;;;;;;;4987021;28;20039;-71
2022/01/08 04:38:36;;;;;;;0.30;0.30;;;;;;;;;;4989503;28;20129;-71
2022/01/08 04:41:02;;;;;;;0.80;0.80;;;;;;;;;;4988219;28;20632;-71
2022/01/08 04:43:29;;;;;;;2.88;1.17;;;;;;;;;;4991534;28;20499;-71
2022/01/08 04:45:55;;;;;;;0.30;0.30;;;;;;;;;;4990741;28;20046;-71
2022/01/08 04:48:21;;;;;;;1.10;0.50;;;;;;;;;;4990047;28;20542;-71
2022/01/08 04:50:47;;;;;;;0.15;0.15;;;;;;;;;;4990597;28;20540;-72
2022/01/08 04:53:13;;;;;;;1.00;0.93;;;;;;;;;;4988052;28;20075;-72
2022/01/08 04:55:39;;;;;;;0.32;0.32;;;;;;;;;;4994360;28;21033;-71
2022/01/08 04:58:05;;;;;;;0.55;0.55;;;;;;;;;;4986533;28;20060;-71
2022/01/08 05:00:33;;;;;;;0.10;0.10;;;;;;;;;;4989148;28;20023;-71
2022/01/08 05:02:59;;;;;;;0.05;0.05;;;;;;;;;;4985506;28;20026;-72
2022/01/08 05:05:25;;;;;;;0.10;0.10;;;;;;;;;;4988686;28;20041;-70
2022/01/08 05:07:51;;;;;;;0.40;0.40;;;;;;;;;;4991155;28;20165;-70
2022/01/08 05:10:17;;;;;;;0.55;0.55;;;;;;;;;;4982446;28;20034;-71
2022/01/08 05:12:44;;;;;;;0.10;0.10;;;;;;;;;;4991386;28;20116;-71
2022/01/08 05:15:10;;;;;;;0.70;0.52;;;;;;;;;;4990683;28;20481;-71
2022/01/08 05:17:38;;;;;;;0.68;0.68;;;;;;;;;;4988025;28;20087;-71
2022/01/08 05:20:06;;;;;;;0.25;0.22;;;;;;;;;;4988813;28;20116;-71
2022/01/08 05:22:49;;;;;;;0.10;0.10;;;;;;;;;;4987127;28;20046;-71
2022/01/08 05:25:19;;;;;;;1.15;1.00;;;;;;;;;;4988534;28;20026;-71
2022/01/08 05:27:46;;;;;;;0.90;0.90;;;;;;;;;;4994831;28;20129;-71
2022/01/08 05:30:13;;;;;;;0.38;0.38;;;;;;;;;;4986214;28;20027;-71
2022/01/08 05:32:39;;;;;;;0.13;0.13;;;;;;;;;;4989352;28;20030;-71
2022/01/08 05:35:05;;;;;;;1.95;0.70;;;;;;;;;;4989250;28;21209;-71
2022/01/08 05:37:31;;;;;;;0.30;0.30;;;;;;;;;;4986946;28;20183;-71
2022/01/08 05:39:57;;;;;;;0.65;0.65;;;;;;;;;;4988201;28;20121;-71
2022/01/08 05:42:23;;;;;;;0.17;0.17;;;;;;;;;;4987276;28;20044;-72
2022/01/08 05:44:49;;;;;;;0.10;0.10;;;;;;;;;;4990649;28;20065;-71
2022/01/08 05:47:15;;;;;;;0.55;0.55;;;;;;;;;;4986962;28;20078;-71
2022/01/08 05:49:41;;;;;;;0.63;0.63;;;;;;;;;;4991657;28;20041;-71
2022/01/08 05:52:10;;;;;;;1.20;1.10;;;;;;;;;;4990221;28;20018;-71
2022/01/08 05:54:35;;;;;;;0.10;0.10;;;;;;;;;;4991715;28;20034;-70
2022/01/08 05:57:01;;;;;;;0.28;0.28;;;;;;;;;;4996278;28;20395;-71
2022/01/08 05:59:27;;;;;;;0.70;0.70;;;;;;;;;;4993941;28;20037;-71
2022/01/08 06:01:54;;;;;;;0.10;0.10;;;;;;;;;;4987254;28;20093;-72
2022/01/08 06:04:20;;;;;;;3.95;0.45;;;;;;;;;;4994465;28;20025;-71
2022/01/08 06:06:46;;;;;;;1.15;0.50;;;;;;;;;;4987550;28;20037;-71
2022/01/08 06:09:12;;;;;;;0.30;0.30;;;;;;;;;;4990132;28;20401;-71
2022/01/08 06:11:38;;;;;;;0.10;0.10;;;;;;;;;;4987459;28;20141;-71
2022/01/08 06:14:04;;;;;;;0.47;0.47;;;;;;;;;;4992848;28;20113;-71
2022/01/08 06:16:34;;;;;;;0.57;0.38;;;;;;;;;;5001176;28;20041;-71
2022/01/08 06:19:01;;;;;;;0.10;0.10;;;;;;;;;;4989594;28;20455;-71
2022/01/08 06:21:27;;;;;;;0.38;0.38;;;;;;;;;;4985139;28;20113;-71
2022/01/08 06:23:53;;;;;;;0.40;0.40;;;;;;;;;;4985669;28;20482;-71
2022/01/08 06:26:19;;;;;;;1.30;1.13;;;;;;;;;;4988265;28;20428;-71
2022/01/08 06:28:45;;;;;;;0.30;0.30;;;;;;;;;;4990769;28;20079;-71
2022/01/08 06:31:11;;;;;;;0.52;0.52;;;;;;;;;;4986158;28;21632;-71
2022/01/08 06:33:36;;;;;;;0.38;0.38;;;;;;;;;;4988258;28;20152;-71
2022/01/08 06:36:02;;;;;;;1.08;0.55;;;;;;;;;;4991372;28;20485;-71
2022/01/08 06:38:28;;;;;;;0.30;0.30;;;;;;;;;;4989446;28;20034;-71
2022/01/08 06:40:54;;;;;;;0.30;0.30;;;;;;;;;;4986871;28;20042;-72
2022/01/08 06:43:20;;;;;;;0.80;0.80;;;;;;;;;;4990350;28;20487;-71
2022/01/08 06:45:52;;;;;;;0.15;0.15;;;;;;;;;;4994228;28;20077;-71
2022/01/08 06:48:18;;;;;;;0.10;0.10;;;;;;;;;;4990490;28;20392;-70
2022/01/08 06:50:44;;;;;;;2.53;1.75;;;;;;;;;;4986240;28;20035;-71
2022/01/08 06:53:09;;;;;;;0.40;0.40;;;;;;;;;;4986418;28;20034;-70
2022/01/08 06:55:36;;;;;;;0.30;0.30;;;;;;;;;;4990362;28;20089;-71
2022/01/08 06:58:02;;;;;;;1.48;0.68;;;;;;;;;;4988239;28;20547;-71
2022/01/08 07:00:28;;;;;;;0.15;0.15;;;;;;;;;;5000507;28;20031;-71
2022/01/08 07:02:54;;;;;;;0.60;0.60;;;;;;;;;;5003416;28;20034;-71
2022/01/08 07:05:20;;;;;;;1.02;0.90;;;;;;;;;;4998179;28;20026;-71
2022/01/08 07:07:46;;;;;;;0.90;0.43;;;;;;;;;;4990735;28;20109;-71
2022/01/08 07:10:12;;;;;;;1.25;1.17;;;;;;;;;;4989443;28;20023;-71
2022/01/08 07:12:38;;;;;;;0.45;0.45;;;;;;;;;;4996041;28;20068;-71
2022/01/08 07:15:04;;;;;;;0.52;0.52;;;;;;;;;;4985765;28;20113;-71
2022/01/08 07:17:30;;;;;;;1.90;0.40;;;;;;;;;;4992610;28;20113;-71
2022/01/08 07:19:59;;;;;;;2.22;1.40;;;;;;;;;;4992193;28;20466;-71
2022/01/08 07:22:25;;;;;;;0.80;0.65;;;;;;;;;;4994286;28;20081;-71
2022/01/08 07:24:51;;;;;;;0.30;0.30;;;;;;;;;;4989635;28;20030;-72
2022/01/08 07:27:17;;;;;;;0.10;0.10;;;;;;;;;;4988678;28;20056;-71
2022/01/08 07:29:42;;;;;;;0.40;0.40;;;;;;;;;;4986174;28;20485;-71
2022/01/08 07:32:08;;;;;;;0.10;0.10;;;;;;;;;;4991667;28;20445;-71
2022/01/08 07:34:34;;;;;;;0.32;0.32;;;;;;;;;;4993507;28;20041;-72
2022/01/08 07:37:00;;;;;;;0.60;0.60;;;;;;;;;;4989485;28;20179;-71
2022/01/08 07:39:26;;;;;;;0.28;0.28;;;;;;;;;;4987168;28;20045;-71
2022/01/08 07:41:52;;;;;;;6.80;1.65;;;;;;;;;;4989881;28;20054;-71
2022/01/08 07:44:18;;;;;;;0.10;0.10;;;;;;;;;;4981501;28;20030;-71
2022/01/08 07:46:44;;;;;;;0.57;0.57;;;;;;;;;;4994167;28;20101;-70
2022/01/08 07:49:10;;;;;;;0.40;0.40;;;;;;;;;;4986116;28;20041;-70
2022/01/08 07:51:36;;;;;;;0.10;0.10;;;;;;;;;;4986271;28;20030;-70
2022/01/08 07:54:01;;;;;;;0.20;0.20;;;;;;;;;;4987015;28;20041;-70
2022/01/08 07:56:27;;;;;;;0.00;0.00;;;;;;;;;;4995191;28;20022;-69
2022/01/08 07:58:53;;;;;;;0.10;0.10;;;;;;;;;;4991310;28;20027;-70
2022/01/08 08:01:21;;;;;;;0.40;0.40;;;;;;;;;;4986500;28;20550;-70
2022/01/08 08:03:47;;;;;;;0.32;0.28;;;;;;;;;;4985629;28;20045;-71
2022/01/08 08:06:19;;;;;;;1.08;0.75;;;;;;;;;;4991941;28;20026;-70
2022/01/08 08:08:54;;;;;;;0.73;0.43;;;;;;;;;;4983907;28;20031;-69
2022/01/08 08:11:20;;;;;;;0.60;0.55;;;;;;;;;;4993869;28;20408;-70
2022/01/08 08:13:46;;;;;;;1.48;1.20;;;;;;;;;;4987768;28;20110;-70
2022/01/08 08:16:12;;;;;;;0.77;0.77;;;;;;;;;;4988689;28;20726;-70
2022/01/08 08:18:37;;;;;;;0.38;0.38;;;;;;;;;;4984372;28;20042;-70
2022/01/08 08:21:03;;;;;;;0.38;0.38;;;;;;;;;;4988681;28;20084;-70
2022/01/08 08:23:29;;;;;;;0.60;0.52;;;;;;;;;;4993356;28;20437;-69
2022/01/08 08:25:55;;;;;;;0.45;0.45;;;;;;;;;;4981643;28;20493;-70
2022/01/08 08:28:21;;;;;;;0.47;0.47;;;;;;;;;;4986033;28;20141;-70
2022/01/08 08:30:47;;;;;;;0.10;0.10;;;;;;;;;;4992632;28;20030;-69
2022/01/08 08:33:13;;;;;;;0.20;0.20;;;;;;;;;;4994976;28;20092;-70
2022/01/08 08:35:39;;;;;;;5.45;1.90;;;;;;;;;;4989726;28;20496;-69
2022/01/08 08:38:05;;;;;;;0.20;0.20;;;;;;;;;;4993648;28;20022;-69
2022/01/08 08:40:31;;;;;;;0.55;0.50;;;;;;;;;;4992603;28;20736;-70
2022/01/08 08:42:57;;;;;;;0.68;0.50;;;;;;;;;;4995292;28;20038;-70
2022/01/08 08:45:23;;;;;;;0.82;0.82;;;;;;;;;;4992790;28;20084;-70
2022/01/08 08:47:50;;;;;;;0.85;0.85;;;;;;;;;;4995107;28;20038;-70
2022/01/08 08:50:16;;;;;;;0.20;0.20;;;;;;;;;;4992166;28;20023;-70
2022/01/08 08:52:42;;;;;;;0.25;0.25;;;;;;;;;;4992254;28;20084;-71
2022/01/08 08:55:09;;;;;;;2.00;1.17;;;;;;;;;;4995584;28;20117;-70
2022/01/08 08:57:35;;;;;;;1.35;0.52;;;;;;;;;;4993938;28;20468;-70
2022/01/08 09:00:01;;;;;;;0.68;0.68;;;;;;;;;;4991143;28;20048;-70
2022/01/08 09:02:27;;;;;;;0.73;0.68;;;;;;;;;;4992928;28;20481;-70
2022/01/08 09:04:53;;;;;;;0.35;0.35;;;;;;;;;;4997022;28;20022;-69
2022/01/08 09:07:19;;;;;;;0.30;0.30;;;;;;;;;;4994629;28;20278;-70
2022/01/08 09:09:45;;;;;;;0.10;0.10;;;;;;;;;;4992530;28;20077;-69
2022/01/08 09:12:15;;;;;;;9.73;1.00;;;;;;;;;;4992488;28;20039;-70
2022/01/08 09:14:41;;;;;;;0.50;0.50;;;;;;;;;;4994753;28;20038;-70
2022/01/08 09:17:07;;;;;;;2.45;1.25;;;;;;;;;;4994761;28;20037;-70
2022/01/08 09:19:33;;;;;;;0.70;0.70;;;;;;;;;;4994632;28;20431;-70
2022/01/08 09:22:01;;;;;;;0.25;0.25;;;;;;;;;;4994371;28;20328;-70
2022/01/08 09:24:27;;;;;;;0.65;0.65;;;;;;;;;;4994111;28;20030;-70
2022/01/08 09:26:53;;;;;;;0.65;0.65;;;;;;;;;;4992012;28;20076;-70
2022/01/08 09:29:19;;;;;;;0.43;0.43;;;;;;;;;;4993051;28;20057;-70
2022/01/08 09:31:45;;;;;;;0.90;0.90;;;;;;;;;;4987043;28;20040;-71
2022/01/08 09:34:12;;;;;;;2.00;1.27;;;;;;;;;;4985998;28;20031;-70
2022/01/08 09:36:38;;;;;;;0.20;0.20;;;;;;;;;;4986586;28;20121;-69
2022/01/08 09:39:04;;;;;;;0.00;0.00;;;;;;;;;;4990364;28;20094;-71
2022/01/08 09:41:30;;;;;;;1.80;0.68;;;;;;;;;;4983633;28;20487;-70
2022/01/08 09:43:56;;;;;;;0.22;0.20;;;;;;;;;;4985413;28;20113;-71
2022/01/08 09:46:22;;;;;;;0.30;0.30;;;;;;;;;;4992160;28;20074;-70
2022/01/08 09:48:49;;;;;;;0.80;0.60;;;;;;;;;;4988082;28;20018;-71
2022/01/08 09:51:16;;;;;;;0.52;0.52;;;;;;;;;;4979650;28;20021;-71
2022/01/08 09:53:43;;;;;;;0.75;0.75;;;;;;;;;;4981523;28;20638;-71
2022/01/08 09:56:09;;;;;;;0.50;0.50;;;;;;;;;;4980947;28;20129;-71
2022/01/08 09:58:35;;;;;;;2.00;1.27;;;;;;;;;;4983771;28;20026;-70
2022/01/08 10:01:01;;;;;;;0.38;0.38;;;;;;;;;;4990230;28;20038;-70
2022/01/08 10:03:31;;;;;;;0.65;0.65;;;;;;;;;;4986797;28;20023;-72
2022/01/08 10:06:01;;;;;;;0.10;0.10;;;;;;;;;;4989012;28;20034;-70
2022/01/08 10:08:31;;;;;;;0.20;0.20;;;;;;;;;;4982922;28;20032;-70
2022/01/08 10:10:57;;;;;;;0.52;0.52;;;;;;;;;;4982627;28;20440;-70
2022/01/08 10:13:29;;;;;;;0.00;0.00;;;;;;;;;;4979541;28;20057;-71
2022/01/08 10:18:40;;;;;;;0.93;0.68;;;;;;;;;;4984737;28;20749;-72
2022/01/08 10:21:19;;;;;;;0.60;0.60;;;;;;;;;;4984549;28;20136;-74
2022/01/08 10:23:47;;;;;;;0.20;0.20;;;;;;;;;;4989159;28;20101;-76
2022/01/08 10:26:13;;;;;;;0.17;0.17;;;;;;;;;;4986055;28;20022;-77
2022/01/08 10:28:42;;;;;;;0.68;0.68;;;;;;;;;;4985103;28;20038;-70
2022/01/08 10:31:10;;;;;;;0.50;0.40;;;;;;;;;;4982412;28;20022;-73
2022/01/08 10:33:37;;;;;;;0.10;0.10;;;;;;;;;;4988866;28;20488;-69
2022/01/08 10:36:03;;;;;;;0.10;0.10;;;;;;;;;;4979598;28;20044;-71
2022/01/08 10:38:32;;;;;;;0.28;0.28;;;;;;;;;;4986599;28;20034;-69
2022/01/08 10:40:59;;;;;;;0.73;0.50;;;;;;;;;;4984466;28;20043;-73
2022/01/08 10:43:25;;;;;;;0.75;0.68;;;;;;;;;;4980274;28;21224;-72
2022/01/08 10:45:52;;;;;;;0.20;0.20;;;;;;;;;;4978719;28;20069;-74
2022/01/08 10:48:29;;;;;;;0.10;0.10;;;;;;;;;;4983513;28;20117;-74
2022/01/08 10:51:07;;;;;;;0.90;0.88;;;;;;;;;;4983773;28;20042;-70
2022/01/08 10:53:52;;;;;;;0.63;0.63;;;;;;;;;;4991684;28;20034;-75
2022/01/08 10:56:22;;;;;;;0.28;0.28;;;;;;;;;;4993158;28;20038;-75
2022/01/08 10:58:52;;;;;;;0.35;0.35;;;;;;;;;;4991423;28;20125;-76
2022/01/08 11:01:37;;;;;;;1.00;0.80;;;;;;;;;;4996236;28;20031;-74
2022/01/08 11:04:03;;;;;;;0.22;0.22;;;;;;;;;;4993644;28;21443;-74
2022/01/08 11:06:30;;;;;;;0.10;0.10;;;;;;;;;;4990470;28;20022;-74
2022/01/08 11:09:00;;;;;;;0.80;0.80;;;;;;;;;;4988732;28;20034;-74
2022/01/08 11:11:29;;;;;;;0.63;0.63;;;;;;;;;;4988039;28;20046;-74
2022/01/08 11:13:58;;;;;;;0.35;0.35;;;;;;;;;;4989748;28;20048;-74
2022/01/08 11:16:23;;;;;;;0.88;0.88;;;;;;;;;;4992177;28;20042;-74
2022/01/08 11:18:49;;;;;;;2.28;1.70;;;;;;;;;;4993437;28;20030;-74
2022/01/08 11:21:16;;;;;;;0.63;0.63;;;;;;;;;;4991508;28;20730;-73
2022/01/08 11:23:42;;;;;;;0.75;0.75;;;;;;;;;;4984438;28;20495;-73
2022/01/08 11:26:10;;;;;;;0.52;0.52;;;;;;;;;;4991239;28;20030;-74
2022/01/08 11:28:37;;;;;;;0.28;0.28;;;;;;;;;;4989174;28;20570;-73
2022/01/08 11:31:03;;;;;;;0.20;0.20;;;;;;;;;;4989223;28;20373;-75
2022/01/08 11:33:33;;;;;;;0.90;0.85;;;;;;;;;;4991576;28;20138;-74
2022/01/08 11:35:59;;;;;;;0.40;0.40;;;;;;;;;;4993700;28;20121;-74
2022/01/08 11:38:27;;;;;;;0.15;0.15;;;;;;;;;;4995070;28;20025;-74
2022/01/08 11:40:53;;;;;;;0.22;0.22;;;;;;;;;;4990143;28;20045;-74
2022/01/08 11:43:21;;;;;;;0.20;0.20;;;;;;;;;;4994493;28;20034;-74
2022/01/08 11:46:07;;;;;;;0.30;0.30;;;;;;;;;;4995164;28;20050;-74
2022/01/08 11:48:36;;;;;;;0.32;0.32;;;;;;;;;;4995428;28;20026;-74
2022/01/08 11:51:04;;;;;;;0.50;0.50;;;;;;;;;;4997852;28;20018;-74
2022/01/08 11:53:31;;;;;;;2.08;1.17;;;;;;;;;;4985444;28;20109;-74
2022/01/08 11:55:57;;;;;;;0.10;0.10;;;;;;;;;;4981944;28;20088;-75
2022/01/08 11:58:31;;;;;;;0.63;0.45;;;;;;;;;;4986612;28;20030;-74
2022/01/08 12:00:58;;;;;;;0.63;0.63;;;;;;;;;;4998186;28;20040;-74
2022/01/08 12:03:35;;;;;;;0.65;0.55;;;;;;;;;;4994606;28;20018;-74
2022/01/08 12:06:20;;;;;;;0.77;0.77;;;;;;;;;;4994186;28;20084;-74
2022/01/08 12:08:57;;;;;;;0.75;0.60;;;;;;;;;;4992040;28;20579;-74
2022/01/08 12:11:23;;;;;;;0.17;0.17;;;;;;;;;;4992104;28;20552;-74
2022/01/08 12:13:49;;;;;;;0.98;0.90;;;;;;;;;;4995983;28;20088;-74
2022/01/08 12:16:34;;;;;;;0.30;0.30;;;;;;;;;;4992724;28;20114;-75
2022/01/08 12:19:00;;;;;;;0.10;0.10;;;;;;;;;;4993330;28;20038;-75
2022/01/08 12:21:42;;;;;;;1.02;1.02;;;;;;;;;;4988786;28;20045;-75
2022/01/08 12:24:26;;;;;;;0.30;0.30;;;;;;;;;;4982845;28;20022;-75
2022/01/08 12:26:56;;;;;;;0.10;0.10;;;;;;;;;;4988722;28;20041;-75
2022/01/08 12:29:42;;;;;;;0.40;0.40;;;;;;;;;;4986687;28;20029;-75
2022/01/08 12:32:31;;;;;;;0.40;0.40;;;;;;;;;;4984979;28;20038;-72
2022/01/08 12:35:03;;;;;;;0.47;0.47;;;;;;;;;;4989808;28;20077;-74
2022/01/08 12:37:35;;;;;;;0.63;0.63;;;;;;;;;;4988652;28;20030;-73
2022/01/08 12:40:01;;;;;;;0.08;0.08;;;;;;;;;;4997458;28;20018;-73
2022/01/08 12:42:27;;;;;;;0.10;0.10;;;;;;;;;;4991718;28;20088;-73
2022/01/08 12:45:12;;;;;;;1.17;1.13;;;;;;;;;;4988521;28;20134;-74
2022/01/08 12:47:48;;;;;;;0.17;0.17;;;;;;;;;;4984800;28;21529;-68
2022/01/08 12:50:33;;;;;;;0.00;0.00;;;;;;;;;;4990459;28;20062;-67
2022/01/08 12:53:09;;;;;;;0.10;0.10;;;;;;;;;;4992393;28;20043;-69
2022/01/08 12:55:40;;;;;;;0.28;0.28;;;;;;;;;;4990719;28;20033;-67
2022/01/08 12:58:20;;;;;;;0.93;0.85;;;;;;;;;;4994976;28;20018;-69
2022/01/08 13:00:53;;;;;;;3.65;0.65;;;;;;;;;;4986143;28;20022;-67
2022/01/08 13:03:23;;;;;;;0.38;0.30;;;;;;;;;;4989754;28;20369;-69
2022/01/08 13:05:52;;;;;;;0.45;0.45;;;;;;;;;;4988578;28;20072;-73
2022/01/08 13:08:25;;;;;;;1.30;1.23;;;;;;;;;;4995413;28;20096;-69
2022/01/08 13:10:56;;;;;;;0.20;0.20;;;;;;;;;;4984806;28;20060;-70
2022/01/08 13:13:22;;;;;;;0.28;0.28;;;;;;;;;;4991819;28;20509;-68
2022/01/08 13:15:48;;;;;;;0.10;0.10;;;;;;;;;;4995931;28;20072;-72
2022/01/08 13:18:21;;;;;;;0.10;0.10;;;;;;;;;;4993020;28;20113;-69
2022/01/08 13:20:59;;;;;;;0.65;0.32;;;;;;;;;;4979962;28;20057;-69
2022/01/08 13:23:24;;;;;;;0.17;0.17;;;;;;;;;;4994924;28;20066;-68
2022/01/08 13:25:57;;;;;;;0.10;0.10;;;;;;;;;;4986499;28;20120;-67
2022/01/08 13:28:24;;;;;;;0.45;0.20;;;;;;;;;;4977055;28;20036;-70
2022/01/08 13:30:50;;;;;;;0.40;0.40;;;;;;;;;;4987648;28;20146;-69
2022/01/08 13:33:27;;;;;;;0.20;0.20;;;;;;;;;;4985940;28;20661;-69
2022/01/08 13:36:09;;;;;;;0.43;0.43;;;;;;;;;;4992500;28;20800;-69
2022/01/08 13:38:36;;;;;;;1.08;0.65;;;;;;;;;;4981246;28;20029;-69
2022/01/08 13:41:08;;;;;;;0.28;0.28;;;;;;;;;;4984526;28;20031;-69
2022/01/08 13:43:53;;;;;;;0.43;0.43;;;;;;;;;;4994099;28;20038;-69
2022/01/08 13:46:19;;;;;;;0.30;0.30;;;;;;;;;;4982007;28;20050;-69
2022/01/08 13:48:45;;;;;;;0.22;0.22;;;;;;;;;;4985451;28;20113;-72
2022/01/08 13:51:11;;;;;;;13.00;0.88;;;;;;;;;;4986156;28;20115;-72
2022/01/08 13:53:37;;;;;;;0.10;0.10;;;;;;;;;;4992822;28;20057;-72
2022/01/08 13:56:03;;;;;;;0.40;0.40;;;;;;;;;;4973308;28;20130;-71
2022/01/08 13:58:30;;;;;;;1.23;1.00;;;;;;;;;;4992904;28;20026;-71
2022/01/08 14:01:05;;;;;;;0.40;0.40;;;;;;;;;;4990847;28;20030;-71
2022/01/08 14:03:33;;;;;;;1.15;0.50;;;;;;;;;;4991901;28;20612;-70
2022/01/08 14:06:04;;;;;;;0.98;0.70;;;;;;;;;;4989348;28;20045;-71
2022/01/08 14:08:31;;;;;;;1.30;1.00;;;;;;;;;;4993717;28;20034;-71
2022/01/08 14:11:03;;;;;;;0.57;0.57;;;;;;;;;;4992917;28;20722;-73
2022/01/08 14:13:30;;;;;;;0.30;0.30;;;;;;;;;;4995499;28;20033;-73
2022/01/08 14:16:01;;;;;;;0.57;0.57;;;;;;;;;;4985187;28;20029;-73
2022/01/08 14:18:30;;;;;;;0.98;0.45;;;;;;;;;;4994011;28;20030;-71
2022/01/08 14:20:57;;;;;;;0.40;0.40;;;;;;;;;;4992184;28;20034;-70
2022/01/08 14:23:27;;;;;;;0.68;0.68;;;;;;;;;;4984594;28;20060;-71
2022/01/08 14:26:14;;;;;;;0.10;0.10;;;;;;;;;;4996651;28;20615;-72
2022/01/08 14:28:40;;;;;;;0.10;0.10;;;;;;;;;;4983164;28;20065;-72
2022/01/08 14:31:15;;;;;;;0.10;0.10;;;;;;;;;;4979678;28;20054;-72
2022/01/08 14:34:00;;;;;;;0.85;0.63;;;;;;;;;;4995656;28;20026;-72
2022/01/08 14:36:26;;;;;;;0.95;0.50;;;;;;;;;;4990477;28;20093;-73
2022/01/08 14:38:52;;;;;;;0.35;0.35;;;;;;;;;;4982778;28;20041;-72
2022/01/08 14:41:34;;;;;;;0.45;0.45;;;;;;;;;;4997999;28;20026;-72
2022/01/08 14:44:01;;;;;;;0.10;0.10;;;;;;;;;;4987977;28;20266;-72
2022/01/08 14:46:27;;;;;;;0.10;0.10;;;;;;;;;;4983535;28;20375;-70
2022/01/08 14:48:53;;;;;;;1.58;0.90;;;;;;;;;;4975951;28;20093;-71
2022/01/08 14:51:20;;;;;;;0.20;0.20;;;;;;;;;;4987146;28;20026;-69
2022/01/08 14:53:46;;;;;;;0.32;0.32;;;;;;;;;;4979274;28;20042;-69
2022/01/08 14:56:12;;;;;;;0.20;0.20;;;;;;;;;;4970860;28;20034;-69
2022/01/08 14:58:39;;;;;;;0.47;0.47;;;;;;;;;;4983899;28;20035;-70
2022/01/08 15:01:05;;;;;;;0.20;0.20;;;;;;;;;;4992934;28;20269;-69
2022/01/08 15:03:31;;;;;;;0.08;0.08;;;;;;;;;;4975529;28;20043;-69
2022/01/08 15:05:57;;;;;;;0.38;0.38;;;;;;;;;;4990986;28;20096;-69
2022/01/08 15:08:23;;;;;;;0.30;0.30;;;;;;;;;;4995950;28;20022;-69
2022/01/08 15:10:49;;;;;;;0.52;0.52;;;;;;;;;;4985945;28;20080;-69